KDBQ

Dubuque Regional Airport

Dubuque, Iowa, USA
METAR KDBQ 160953Z AUTO 20010KT 10SM CLR M01/M05 A2974 RMK AO2 SLP081 T10061050
Observed Flight Rules
Dec-16 @ 09:53 UTC (an hour ago) Visual Flight Rules
Wind Visibility Clouds
200° at 10 knots 10 miles
  • Clear skies
Temperatures Readings
Current -1°C / 30°F
Dewpoint -5°C / 23°F
Humidity 75%
Altimeter 29.74" Hg
Pressure 1008.1 hPa
Elevation 326
METAR KDBQ 160953Z AUTO 20010KT 10SM CLR M01/M05 A2974 RMK AO2 SLP081 T10061050
Observed Flight Rules
Dec-16 @ 09:53 UTC
(an hour ago)
VFR
Wind Visibility
200° at 10 knots 10 miles
Clouds
  • Clear skies
Temperature Dewpoint
-1°C / 30°F -5°C / 23°F
Humidity Altimeter Pressure
75% 29.74" Hg 1008.1 hPa